sensor_id;sensor_type;location;lat;lon;timestamp;pressure;altitude;pressure_sealevel;temperature;humidity
64340;BME280;50674;53.290;-9.080;2022-08-06T00:00:53;103095.13;;;13.90;75.76
64340;BME280;50674;53.290;-9.080;2022-08-06T00:03:19;103086.19;;;13.90;74.89
64340;BME280;50674;53.290;-9.080;2022-08-06T00:05:44;103092.69;;;13.86;75.13
64340;BME280;50674;53.290;-9.080;2022-08-06T00:08:10;103093.09;;;13.78;75.76
64340;BME280;50674;53.290;-9.080;2022-08-06T00:10:35;103094.34;;;13.71;76.28
64340;BME280;50674;53.290;-9.080;2022-08-06T00:13:01;103092.94;;;13.64;79.09
64340;BME280;50674;53.290;-9.080;2022-08-06T00:15:27;103095.41;;;13.68;77.13
64340;BME280;50674;53.290;-9.080;2022-08-06T00:17:52;103088.97;;;13.71;76.08
64340;BME280;50674;53.290;-9.080;2022-08-06T00:20:18;103091.75;;;13.69;77.36
64340;BME280;50674;53.290;-9.080;2022-08-06T00:22:43;103093.50;;;13.70;77.46
64340;BME280;50674;53.290;-9.080;2022-08-06T00:25:09;103087.09;;;13.73;75.37
64340;BME280;50674;53.290;-9.080;2022-08-06T00:27:37;103092.13;;;13.79;75.28
64340;BME280;50674;53.290;-9.080;2022-08-06T00:30:05;103078.66;;;13.80;75.34
64340;BME280;50674;53.290;-9.080;2022-08-06T00:32:31;103083.88;;;13.84;75.58
64340;BME280;50674;53.290;-9.080;2022-08-06T00:34:57;103081.94;;;13.86;75.21
64340;BME280;50674;53.290;-9.080;2022-08-06T00:37:22;103082.50;;;13.92;75.52
64340;BME280;50674;53.290;-9.080;2022-08-06T00:39:48;103076.50;;;13.87;75.82
64340;BME280;50674;53.290;-9.080;2022-08-06T00:42:13;103080.84;;;13.90;76.45
64340;BME280;50674;53.290;-9.080;2022-08-06T00:44:39;103090.00;;;13.86;75.74
64340;BME280;50674;53.290;-9.080;2022-08-06T00:47:05;103077.06;;;13.76;76.02
64340;BME280;50674;53.290;-9.080;2022-08-06T00:49:30;103091.75;;;13.69;80.05
64340;BME280;50674;53.290;-9.080;2022-08-06T00:51:56;103088.97;;;13.71;77.92
64340;BME280;50674;53.290;-9.080;2022-08-06T00:54:21;103085.34;;;13.72;78.35
64340;BME280;50674;53.290;-9.080;2022-08-06T00:56:47;103082.03;;;13.67;78.78
64340;BME280;50674;53.290;-9.080;2022-08-06T00:59:14;103086.69;;;13.63;77.46
64340;BME280;50674;53.290;-9.080;2022-08-06T01:01:39;103087.81;;;13.59;78.60
64340;BME280;50674;53.290;-9.080;2022-08-06T01:04:05;103094.91;;;13.60;77.97
64340;BME280;50674;53.290;-9.080;2022-08-06T01:06:31;103089.06;;;13.52;78.21
64340;BME280;50674;53.290;-9.080;2022-08-06T01:08:56;103085.75;;;13.47;77.96
64340;BME280;50674;53.290;-9.080;2022-08-06T01:11:22;103075.94;;;13.46;77.24
64340;BME280;50674;53.290;-9.080;2022-08-06T01:13:47;103083.38;;;13.41;78.93
64340;BME280;50674;53.290;-9.080;2022-08-06T01:18:46;103090.84;;;13.34;79.54
64340;BME280;50674;53.290;-9.080;2022-08-06T01:21:35;103082.75;;;13.36;78.27
64340;BME280;50674;53.290;-9.080;2022-08-06T01:31:59;103081.25;;;13.47;77.68
64340;BME280;50674;53.290;-9.080;2022-08-06T01:34:47;103073.53;;;13.59;78.95
64340;BME280;50674;53.290;-9.080;2022-08-06T01:37:25;103083.00;;;13.66;78.32
64340;BME280;50674;53.290;-9.080;2022-08-06T01:39:55;103079.09;;;13.71;78.08
64340;BME280;50674;53.290;-9.080;2022-08-06T01:42:22;103073.59;;;13.74;79.23
64340;BME280;50674;53.290;-9.080;2022-08-06T01:44:50;103081.34;;;13.80;77.16
64340;BME280;50674;53.290;-9.080;2022-08-06T01:47:20;103072.47;;;13.78;76.51
64340;BME280;50674;53.290;-9.080;2022-08-06T01:49:48;103076.44;;;13.71;77.02
64340;BME280;50674;53.290;-9.080;2022-08-06T01:52:14;103078.34;;;13.69;78.63
64340;BME280;50674;53.290;-9.080;2022-08-06T01:54:41;103074.13;;;13.64;77.76
64340;BME280;50674;53.290;-9.080;2022-08-06T01:57:10;103076.66;;;13.67;77.58
64340;BME280;50674;53.290;-9.080;2022-08-06T01:59:37;103067.84;;;13.65;77.14
64340;BME280;50674;53.290;-9.080;2022-08-06T02:02:05;103069.97;;;13.58;77.51
64340;BME280;50674;53.290;-9.080;2022-08-06T02:04:35;103070.59;;;13.63;77.73
64340;BME280;50674;53.290;-9.080;2022-08-06T02:07:03;103067.19;;;13.60;77.59
64340;BME280;50674;53.290;-9.080;2022-08-06T02:09:30;103065.72;;;13.54;77.57
64340;BME280;50674;53.290;-9.080;2022-08-06T02:12:02;103066.72;;;13.51;77.48
64340;BME280;50674;53.290;-9.080;2022-08-06T02:14:28;103060.66;;;13.48;77.93
64340;BME280;50674;53.290;-9.080;2022-08-06T02:16:56;103063.50;;;13.45;78.13
64340;BME280;50674;53.290;-9.080;2022-08-06T02:19:23;103068.22;;;13.40;79.44
64340;BME280;50674;53.290;-9.080;2022-08-06T02:21:49;103067.53;;;13.36;82.04
64340;BME280;50674;53.290;-9.080;2022-08-06T02:24:16;103063.25;;;13.32;79.41
64340;BME280;50674;53.290;-9.080;2022-08-06T02:26:42;103074.91;;;13.31;80.25
64340;BME280;50674;53.290;-9.080;2022-08-06T02:29:11;103074.28;;;13.26;82.64
64340;BME280;50674;53.290;-9.080;2022-08-06T02:31:39;103071.72;;;13.23;82.86
64340;BME280;50674;53.290;-9.080;2022-08-06T02:34:04;103076.81;;;13.29;83.29
64340;BME280;50674;53.290;-9.080;2022-08-06T02:36:34;103072.16;;;13.32;81.75
64340;BME280;50674;53.290;-9.080;2022-08-06T02:44:12;103073.50;;;13.41;81.01
64340;BME280;50674;53.290;-9.080;2022-08-06T02:46:43;103078.63;;;13.46;83.04
64340;BME280;50674;53.290;-9.080;2022-08-06T02:49:12;103082.59;;;13.56;78.19
64340;BME280;50674;53.290;-9.080;2022-08-06T02:51:43;103078.66;;;13.63;78.06
64340;BME280;50674;53.290;-9.080;2022-08-06T02:54:17;103074.53;;;13.73;78.10
64340;BME280;50674;53.290;-9.080;2022-08-06T02:56:45;103073.97;;;13.84;78.37
64340;BME280;50674;53.290;-9.080;2022-08-06T02:59:15;103072.63;;;13.93;78.20
64340;BME280;50674;53.290;-9.080;2022-08-06T03:01:43;103071.50;;;13.97;77.88
64340;BME280;50674;53.290;-9.080;2022-08-06T03:04:11;103079.31;;;14.01;77.85
64340;BME280;50674;53.290;-9.080;2022-08-06T03:06:43;103065.03;;;14.01;77.66
64340;BME280;50674;53.290;-9.080;2022-08-06T03:09:10;103064.09;;;14.02;77.80
64340;BME280;50674;53.290;-9.080;2022-08-06T03:11:37;103064.00;;;14.03;77.83
64340;BME280;50674;53.290;-9.080;2022-08-06T03:14:04;103066.44;;;14.08;77.67
64340;BME280;50674;53.290;-9.080;2022-08-06T03:16:34;103065.41;;;14.11;77.88
64340;BME280;50674;53.290;-9.080;2022-08-06T03:19:00;103066.09;;;14.14;77.70
64340;BME280;50674;53.290;-9.080;2022-08-06T03:21:26;103061.44;;;14.18;77.67
64340;BME280;50674;53.290;-9.080;2022-08-06T03:23:53;103063.88;;;14.22;78.10
64340;BME280;50674;53.290;-9.080;2022-08-06T03:26:19;103065.44;;;14.26;77.71
64340;BME280;50674;53.290;-9.080;2022-08-06T03:28:45;103055.47;;;14.28;77.44
64340;BME280;50674;53.290;-9.080;2022-08-06T03:31:12;103061.78;;;14.27;77.65
64340;BME280;50674;53.290;-9.080;2022-08-06T03:33:38;103060.00;;;14.28;77.68
64340;BME280;50674;53.290;-9.080;2022-08-06T03:36:04;103062.50;;;14.31;78.08
64340;BME280;50674;53.290;-9.080;2022-08-06T03:38:37;103054.53;;;14.29;78.06
64340;BME280;50674;53.290;-9.080;2022-08-06T03:41:02;103061.56;;;14.32;77.78
64340;BME280;50674;53.290;-9.080;2022-08-06T03:43:29;103059.72;;;14.33;78.01
64340;BME280;50674;53.290;-9.080;2022-08-06T03:45:56;103049.00;;;14.33;77.92
64340;BME280;50674;53.290;-9.080;2022-08-06T03:48:24;103042.59;;;14.35;78.10
64340;BME280;50674;53.290;-9.080;2022-08-06T03:50:53;103050.44;;;14.38;79.27
64340;BME280;50674;53.290;-9.080;2022-08-06T03:53:20;103051.25;;;14.40;78.24
64340;BME280;50674;53.290;-9.080;2022-08-06T03:55:47;103052.91;;;14.43;78.96
64340;BME280;50674;53.290;-9.080;2022-08-06T03:58:15;103050.03;;;14.46;79.02
64340;BME280;50674;53.290;-9.080;2022-08-06T04:01:06;103050.81;;;14.48;78.06
64340;BME280;50674;53.290;-9.080;2022-08-06T04:03:29;103046.19;;;14.51;78.13
64340;BME280;50674;53.290;-9.080;2022-08-06T04:05:56;103051.28;;;14.56;78.33
64340;BME280;50674;53.290;-9.080;2022-08-06T04:08:22;103041.22;;;14.60;78.21
64340;BME280;50674;53.290;-9.080;2022-08-06T04:10:49;103041.22;;;14.60;78.53
64340;BME280;50674;53.290;-9.080;2022-08-06T04:13:17;103056.31;;;14.62;78.24
64340;BME280;50674;53.290;-9.080;2022-08-06T04:15:43;103043.75;;;14.63;78.46
64340;BME280;50674;53.290;-9.080;2022-08-06T04:18:10;103048.25;;;14.62;78.53
64340;BME280;50674;53.290;-9.080;2022-08-06T04:20:36;103047.31;;;14.63;78.39
64340;BME280;50674;53.290;-9.080;2022-08-06T04:23:03;103045.41;;;14.65;78.71
64340;BME280;50674;53.290;-9.080;2022-08-06T04:25:33;103048.97;;;14.66;79.32
64340;BME280;50674;53.290;-9.080;2022-08-06T04:28:00;103046.00;;;14.70;80.65
64340;BME280;50674;53.290;-9.080;2022-08-06T04:30:27;103045.91;;;14.72;80.66
64340;BME280;50674;53.290;-9.080;2022-08-06T04:32:53;103047.72;;;14.71;80.73
64340;BME280;50674;53.290;-9.080;2022-08-06T04:35:19;103050.41;;;14.71;82.67
64340;BME280;50674;53.290;-9.080;2022-08-06T04:37:44;103044.00;;;14.74;79.57
64340;BME280;50674;53.290;-9.080;2022-08-06T04:40:10;103043.91;;;14.75;81.03
64340;BME280;50674;53.290;-9.080;2022-08-06T04:42:36;103051.91;;;14.77;80.51
64340;BME280;50674;53.290;-9.080;2022-08-06T04:45:02;103051.47;;;14.85;80.01
64340;BME280;50674;53.290;-9.080;2022-08-06T04:47:29;103051.38;;;14.86;81.91
64340;BME280;50674;53.290;-9.080;2022-08-06T04:49:55;103056.69;;;14.88;81.25
64340;BME280;50674;53.290;-9.080;2022-08-06T04:52:22;103061.25;;;14.86;79.18
64340;BME280;50674;53.290;-9.080;2022-08-06T04:54:48;103060.50;;;14.84;81.33
64340;BME280;50674;53.290;-9.080;2022-08-06T04:57:13;103069.50;;;14.83;80.01
64340;BME280;50674;53.290;-9.080;2022-08-06T04:59:38;103066.75;;;14.84;80.12
64340;BME280;50674;53.290;-9.080;2022-08-06T05:02:04;103065.59;;;14.88;79.63
64340;BME280;50674;53.290;-9.080;2022-08-06T05:04:29;103063.78;;;14.89;80.75
64340;BME280;50674;53.290;-9.080;2022-08-06T05:06:57;103056.31;;;14.94;80.21
64340;BME280;50674;53.290;-9.080;2022-08-06T05:09:26;103058.06;;;14.95;79.48
64340;BME280;50674;53.290;-9.080;2022-08-06T05:12:03;103065.75;;;15.01;79.47
64340;BME280;50674;53.290;-9.080;2022-08-06T05:14:36;103065.56;;;15.04;79.21
64340;BME280;50674;53.290;-9.080;2022-08-06T05:17:03;103062.81;;;15.06;79.41
64340;BME280;50674;53.290;-9.080;2022-08-06T05:19:38;103063.69;;;15.06;80.54
64340;BME280;50674;53.290;-9.080;2022-08-06T05:22:06;103068.00;;;15.09;79.46
64340;BME280;50674;53.290;-9.080;2022-08-06T05:24:33;103065.41;;;15.07;79.74
64340;BME280;50674;53.290;-9.080;2022-08-06T05:26:59;103064.38;;;15.10;79.62
64340;BME280;50674;53.290;-9.080;2022-08-06T05:29:25;103061.41;;;15.14;79.65
64340;BME280;50674;53.290;-9.080;2022-08-06T05:31:57;103065.75;;;15.17;79.57
64340;BME280;50674;53.290;-9.080;2022-08-06T05:34:23;103055.75;;;15.19;79.56
64340;BME280;50674;53.290;-9.080;2022-08-06T05:36:48;103057.41;;;15.21;79.71
64340;BME280;50674;53.290;-9.080;2022-08-06T05:39:13;103057.22;;;15.24;79.68
64340;BME280;50674;53.290;-9.080;2022-08-06T05:41:39;103058.09;;;15.25;80.07
64340;BME280;50674;53.290;-9.080;2022-08-06T05:44:06;103058.00;;;15.27;79.65
64340;BME280;50674;53.290;-9.080;2022-08-06T05:46:34;103056.25;;;15.25;79.83
64340;BME280;50674;53.290;-9.080;2022-08-06T05:49:05;103055.56;;;15.22;80.08
64340;BME280;50674;53.290;-9.080;2022-08-06T05:51:33;103057.41;;;15.21;80.41
64340;BME280;50674;53.290;-9.080;2022-08-06T05:54:06;103055.75;;;15.19;80.34
64340;BME280;50674;53.290;-9.080;2022-08-06T05:56:37;103053.06;;;15.19;80.46
64340;BME280;50674;53.290;-9.080;2022-08-06T05:59:06;103053.91;;;15.19;80.84
64340;BME280;50674;53.290;-9.080;2022-08-06T06:01:32;103066.34;;;15.22;80.64
64340;BME280;50674;53.290;-9.080;2022-08-06T06:04:00;103063.53;;;15.23;80.63
64340;BME280;50674;53.290;-9.080;2022-08-06T06:06:27;103064.44;;;15.24;80.82
64340;BME280;50674;53.290;-9.080;2022-08-06T06:08:53;103058.84;;;15.27;80.96
64340;BME280;50674;53.290;-9.080;2022-08-06T06:11:19;103068.47;;;15.31;80.84
64340;BME280;50674;53.290;-9.080;2022-08-06T06:13:45;103064.56;;;15.37;80.83
64340;BME280;50674;53.290;-9.080;2022-08-06T06:16:27;103071.50;;;15.41;80.86
64340;BME280;50674;53.290;-9.080;2022-08-06T06:26:35;103081.97;;;15.61;80.97
64340;BME280;50674;53.290;-9.080;2022-08-06T06:32:02;103083.81;;;15.75;80.89
64340;BME280;50674;53.290;-9.080;2022-08-06T06:39:38;103085.97;;;15.84;82.11
64340;BME280;50674;53.290;-9.080;2022-08-06T06:42:10;103082.81;;;15.92;80.95
64340;BME280;50674;53.290;-9.080;2022-08-06T06:44:42;103084.16;;;15.99;81.91
64340;BME280;50674;53.290;-9.080;2022-08-06T06:52:05;103095.91;;;16.12;81.07
64340;BME280;50674;53.290;-9.080;2022-08-06T06:54:35;103096.31;;;16.20;81.20
64340;BME280;50674;53.290;-9.080;2022-08-06T06:57:02;103090.03;;;16.20;81.51
64340;BME280;50674;53.290;-9.080;2022-08-06T06:59:39;103085.91;;;16.29;81.34
64340;BME280;50674;53.290;-9.080;2022-08-06T07:02:08;103098.25;;;16.33;81.60
64340;BME280;50674;53.290;-9.080;2022-08-06T07:04:40;103097.06;;;16.37;81.50
64340;BME280;50674;53.290;-9.080;2022-08-06T07:07:06;103100.56;;;16.39;81.60
64340;BME280;50674;53.290;-9.080;2022-08-06T07:09:33;103099.88;;;16.35;81.96
64340;BME280;50674;53.290;-9.080;2022-08-06T07:11:59;103095.16;;;16.39;82.08
64340;BME280;50674;53.290;-9.080;2022-08-06T07:14:26;103096.09;;;16.38;81.90
64340;BME280;50674;53.290;-9.080;2022-08-06T07:16:53;103100.25;;;16.43;82.07
64340;BME280;50674;53.290;-9.080;2022-08-06T07:19:20;103105.53;;;16.45;81.87
64340;BME280;50674;53.290;-9.080;2022-08-06T07:21:47;103099.56;;;16.54;81.90
64340;BME280;50674;53.290;-9.080;2022-08-06T07:24:14;103103.81;;;16.58;81.77
64340;BME280;50674;53.290;-9.080;2022-08-06T07:26:43;103103.13;;;16.69;81.96
64340;BME280;50674;53.290;-9.080;2022-08-06T07:29:10;103103.78;;;16.73;81.52
64340;BME280;50674;53.290;-9.080;2022-08-06T07:31:37;103107.09;;;16.78;81.65
64340;BME280;50674;53.290;-9.080;2022-08-06T07:34:03;103109.94;;;16.89;81.58
64340;BME280;50674;53.290;-9.080;2022-08-06T07:36:33;103103.50;;;16.91;81.33
64340;BME280;50674;53.290;-9.080;2022-08-06T07:39:02;103102.13;;;16.99;81.50
64340;BME280;50674;53.290;-9.080;2022-08-06T07:41:27;103105.69;;;16.99;81.58
64340;BME280;50674;53.290;-9.080;2022-08-06T07:43:56;103113.00;;;16.97;81.80
64340;BME280;50674;53.290;-9.080;2022-08-06T07:46:28;103111.28;;;16.96;82.03
64340;BME280;50674;53.290;-9.080;2022-08-06T07:48:57;103108.19;;;17.02;81.75
64340;BME280;50674;53.290;-9.080;2022-08-06T07:51:27;103107.56;;;17.11;81.32
64340;BME280;50674;53.290;-9.080;2022-08-06T07:53:53;103118.38;;;17.11;81.75
64340;BME280;50674;53.290;-9.080;2022-08-06T07:56:19;103117.84;;;17.19;81.83
64340;BME280;50674;53.290;-9.080;2022-08-06T07:58:45;103117.47;;;17.25;81.66
64340;BME280;50674;53.290;-9.080;2022-08-06T08:01:11;103113.38;;;17.32;81.40
64340;BME280;50674;53.290;-9.080;2022-08-06T08:03:37;103109.31;;;17.39;81.34
64340;BME280;50674;53.290;-9.080;2022-08-06T08:06:22;103114.72;;;17.52;80.91
64340;BME280;50674;53.290;-9.080;2022-08-06T08:08:59;103113.69;;;17.67;80.82
64340;BME280;50674;53.290;-9.080;2022-08-06T08:11:26;103115.59;;;17.80;80.88
64340;BME280;50674;53.290;-9.080;2022-08-06T08:13:54;103116.88;;;17.87;80.99
64340;BME280;50674;53.290;-9.080;2022-08-06T08:16:20;103121.53;;;17.98;81.16
64340;BME280;50674;53.290;-9.080;2022-08-06T08:18:46;103126.53;;;18.04;80.71
64340;BME280;50674;53.290;-9.080;2022-08-06T08:21:11;103120.56;;;18.11;81.01
64340;BME280;50674;53.290;-9.080;2022-08-06T08:23:38;103121.56;;;18.10;81.65
64340;BME280;50674;53.290;-9.080;2022-08-06T08:26:04;103116.88;;;18.12;81.68
64340;BME280;50674;53.290;-9.080;2022-08-06T08:28:29;103125.75;;;18.27;81.01
64340;BME280;50674;53.290;-9.080;2022-08-06T08:30:56;103125.09;;;18.24;80.97
64340;BME280;50674;53.290;-9.080;2022-08-06T08:33:24;103118.50;;;18.28;81.23
64340;BME280;50674;53.290;-9.080;2022-08-06T08:35:51;103118.19;;;18.32;81.78
64340;BME280;50674;53.290;-9.080;2022-08-06T08:38:17;103124.13;;;18.37;81.41
64340;BME280;50674;53.290;-9.080;2022-08-06T08:40:42;103122.50;;;18.48;82.40
64340;BME280;50674;53.290;-9.080;2022-08-06T08:43:10;103118.72;;;18.50;80.66
64340;BME280;50674;53.290;-9.080;2022-08-06T08:45:37;103124.22;;;18.49;80.85
64340;BME280;50674;53.290;-9.080;2022-08-06T08:48:02;103115.34;;;18.59;80.67
64340;BME280;50674;53.290;-9.080;2022-08-06T08:50:29;103118.41;;;18.42;80.92
64340;BME280;50674;53.290;-9.080;2022-08-06T08:52:57;103117.88;;;18.37;80.79
64340;BME280;50674;53.290;-9.080;2022-08-06T08:55:24;103119.06;;;18.33;81.12
64340;BME280;50674;53.290;-9.080;2022-08-06T08:57:50;103121.66;;;18.22;81.44
64340;BME280;50674;53.290;-9.080;2022-08-06T09:00:17;103126.63;;;18.15;81.59
64340;BME280;50674;53.290;-9.080;2022-08-06T09:02:43;103125.78;;;18.14;81.35
64340;BME280;50674;53.290;-9.080;2022-08-06T09:05:09;103137.78;;;18.10;81.82
64340;BME280;50674;53.290;-9.080;2022-08-06T09:07:35;103137.88;;;18.09;82.00
64340;BME280;50674;53.290;-9.080;2022-08-06T09:10:00;103138.44;;;18.14;81.92
64340;BME280;50674;53.290;-9.080;2022-08-06T09:12:27;103130.97;;;18.18;81.68
64340;BME280;50674;53.290;-9.080;2022-08-06T09:14:52;103145.44;;;18.17;82.00
64340;BME280;50674;53.290;-9.080;2022-08-06T09:17:18;103138.63;;;18.24;81.96
64340;BME280;50674;53.290;-9.080;2022-08-06T09:19:44;103142.53;;;18.20;82.12
64340;BME280;50674;53.290;-9.080;2022-08-06T09:22:10;103136.03;;;18.22;82.04
64340;BME280;50674;53.290;-9.080;2022-08-06T09:24:36;103143.09;;;18.25;82.36
64340;BME280;50674;53.290;-9.080;2022-08-06T09:29:27;103135.59;;;18.41;81.96
64340;BME280;50674;53.290;-9.080;2022-08-06T09:31:52;103137.03;;;18.47;81.48
64340;BME280;50674;53.290;-9.080;2022-08-06T09:34:18;103142.41;;;18.59;81.54
64340;BME280;50674;53.290;-9.080;2022-08-06T09:36:45;103137.63;;;18.63;81.32
64340;BME280;50674;53.290;-9.080;2022-08-06T09:39:11;103137.41;;;18.79;81.05
64340;BME280;50674;53.290;-9.080;2022-08-06T09:41:47;103139.47;;;18.88;80.91
64340;BME280;50674;53.290;-9.080;2022-08-06T09:44:13;103138.03;;;18.95;80.76
64340;BME280;50674;53.290;-9.080;2022-08-06T09:46:42;103144.72;;;19.02;80.54
64340;BME280;50674;53.290;-9.080;2022-08-06T09:49:09;103134.81;;;19.14;80.23
64340;BME280;50674;53.290;-9.080;2022-08-06T09:51:36;103143.28;;;19.33;80.74
64340;BME280;50674;53.290;-9.080;2022-08-06T09:54:05;103145.69;;;19.49;79.88
64340;BME280;50674;53.290;-9.080;2022-08-06T09:56:32;103141.00;;;19.64;79.41
64340;BME280;50674;53.290;-9.080;2022-08-06T09:59:02;103138.50;;;19.85;78.64
64340;BME280;50674;53.290;-9.080;2022-08-06T10:01:27;103135.56;;;19.99;77.97
64340;BME280;50674;53.290;-9.080;2022-08-06T10:03:55;103135.22;;;20.15;77.78
64340;BME280;50674;53.290;-9.080;2022-08-06T10:06:21;103130.44;;;20.30;74.78
64340;BME280;50674;53.290;-9.080;2022-08-06T10:08:48;103131.78;;;20.36;76.83
64340;BME280;50674;53.290;-9.080;2022-08-06T10:11:14;103129.34;;;20.44;76.04
64340;BME280;50674;53.290;-9.080;2022-08-06T10:13:45;103132.03;;;20.44;75.62
64340;BME280;50674;53.290;-9.080;2022-08-06T10:16:17;103130.44;;;20.41;76.58
64340;BME280;50674;53.290;-9.080;2022-08-06T10:18:45;103117.88;;;20.40;76.46
64340;BME280;50674;53.290;-9.080;2022-08-06T10:21:12;103122.16;;;20.43;76.47
64340;BME280;50674;53.290;-9.080;2022-08-06T10:23:39;103126.03;;;20.63;76.71
64340;BME280;50674;53.290;-9.080;2022-08-06T10:26:09;103125.63;;;20.90;75.61
64340;BME280;50674;53.290;-9.080;2022-08-06T10:28:36;103117.66;;;21.09;75.02
64340;BME280;50674;53.290;-9.080;2022-08-06T10:31:03;103109.22;;;21.23;73.99
64340;BME280;50674;53.290;-9.080;2022-08-06T10:33:31;103109.56;;;21.41;74.06
64340;BME280;50674;53.290;-9.080;2022-08-06T10:36:03;103113.63;;;21.68;73.51
64340;BME280;50674;53.290;-9.080;2022-08-06T10:38:29;103112.22;;;21.94;72.70
64340;BME280;50674;53.290;-9.080;2022-08-06T10:40:58;103114.63;;;22.09;72.39
64340;BME280;50674;53.290;-9.080;2022-08-06T10:43:25;103109.25;;;22.18;71.45
64340;BME280;50674;53.290;-9.080;2022-08-06T10:45:51;103110.47;;;22.35;69.96
64340;BME280;50674;53.290;-9.080;2022-08-06T10:48:18;103104.66;;;22.40;70.93
64340;BME280;50674;53.290;-9.080;2022-08-06T10:50:43;103113.56;;;22.52;69.00
64340;BME280;50674;53.290;-9.080;2022-08-06T10:53:09;103108.56;;;22.57;69.40
64340;BME280;50674;53.290;-9.080;2022-08-06T10:55:35;103108.63;;;22.76;68.97
64340;BME280;50674;53.290;-9.080;2022-08-06T10:58:02;103114.09;;;22.86;68.59
64340;BME280;50674;53.290;-9.080;2022-08-06T11:00:28;103115.31;;;22.93;67.83
64340;BME280;50674;53.290;-9.080;2022-08-06T11:05:26;103125.94;;;23.15;65.34
64340;BME280;50674;53.290;-9.080;2022-08-06T11:10:49;103122.78;;;23.10;63.54
64340;BME280;50674;53.290;-9.080;2022-08-06T11:13:21;103119.75;;;22.94;66.67
64340;BME280;50674;53.290;-9.080;2022-08-06T11:15:51;103128.69;;;22.75;66.70
64340;BME280;50674;53.290;-9.080;2022-08-06T11:18:17;103117.75;;;22.56;67.72
64340;BME280;50674;53.290;-9.080;2022-08-06T11:20:45;103123.44;;;22.53;67.38
64340;BME280;50674;53.290;-9.080;2022-08-06T11:25:37;103120.09;;;22.39;66.74
64340;BME280;50674;53.290;-9.080;2022-08-06T11:28:03;103126.53;;;22.38;67.51
64340;BME280;50674;53.290;-9.080;2022-08-06T11:30:41;103112.94;;;22.79;66.11
64340;BME280;50674;53.290;-9.080;2022-08-06T11:33:07;103114.19;;;23.34;65.25
64340;BME280;50674;53.290;-9.080;2022-08-06T11:38:13;103107.81;;;24.02;64.06
64340;BME280;50674;53.290;-9.080;2022-08-06T11:40:58;103100.53;;;24.39;59.66
64340;BME280;50674;53.290;-9.080;2022-08-06T11:51:37;103096.06;;;24.94;61.31
64340;BME280;50674;53.290;-9.080;2022-08-06T11:54:08;103091.16;;;24.97;58.36
64340;BME280;50674;53.290;-9.080;2022-08-06T11:56:33;103089.09;;;25.45;60.24
64340;BME280;50674;53.290;-9.080;2022-08-06T11:59:33;103090.34;;;25.76;58.81
64340;BME280;50674;53.290;-9.080;2022-08-06T12:01:50;103096.88;;;26.27;57.69
64340;BME280;50674;53.290;-9.080;2022-08-06T12:07:19;103092.25;;;26.62;51.98
64340;BME280;50674;53.290;-9.080;2022-08-06T12:14:49;103095.19;;;27.52;54.03
64340;BME280;50674;53.290;-9.080;2022-08-06T12:17:15;103097.91;;;27.93;51.38
64340;BME280;50674;53.290;-9.080;2022-08-06T12:19:46;103096.03;;;27.77;48.68
64340;BME280;50674;53.290;-9.080;2022-08-06T12:22:13;103094.50;;;27.50;50.21
64340;BME280;50674;53.290;-9.080;2022-08-06T12:24:43;103091.56;;;27.27;46.91
64340;BME280;50674;53.290;-9.080;2022-08-06T12:27:11;103092.94;;;27.23;46.35
64340;BME280;50674;53.290;-9.080;2022-08-06T12:29:37;103084.19;;;27.44;47.96
64340;BME280;50674;53.290;-9.080;2022-08-06T12:32:22;103090.19;;;27.64;45.33
64340;BME280;50674;53.290;-9.080;2022-08-06T12:34:48;103087.28;;;27.90;47.31
64340;BME280;50674;53.290;-9.080;2022-08-06T12:37:14;103096.66;;;28.12;44.87
64340;BME280;50674;53.290;-9.080;2022-08-06T12:39:40;103085.47;;;28.21;44.28
64340;BME280;50674;53.290;-9.080;2022-08-06T12:42:24;103088.97;;;28.55;47.80
64340;BME280;50674;53.290;-9.080;2022-08-06T12:44:50;103091.69;;;28.63;45.90
64340;BME280;50674;53.290;-9.080;2022-08-06T12:47:16;103093.56;;;28.62;47.25
64340;BME280;50674;53.290;-9.080;2022-08-06T12:49:41;103092.09;;;28.43;46.18
64340;BME280;50674;53.290;-9.080;2022-08-06T12:52:11;103103.53;;;28.16;49.53
64340;BME280;50674;53.290;-9.080;2022-08-06T12:54:37;103098.94;;;27.84;47.13
64340;BME280;50674;53.290;-9.080;2022-08-06T12:57:03;103093.97;;;27.87;48.44
64340;BME280;50674;53.290;-9.080;2022-08-06T12:59:29;103093.13;;;27.87;44.69
64340;BME280;50674;53.290;-9.080;2022-08-06T13:01:54;103094.63;;;28.06;45.42
64340;BME280;50674;53.290;-9.080;2022-08-06T13:04:20;103088.25;;;28.13;44.10
64340;BME280;50674;53.290;-9.080;2022-08-06T13:06:47;103084.38;;;28.47;43.89
64340;BME280;50674;53.290;-9.080;2022-08-06T13:09:13;103089.69;;;28.49;42.89
64340;BME280;50674;53.290;-9.080;2022-08-06T13:11:39;103094.94;;;28.66;44.33
64340;BME280;50674;53.290;-9.080;2022-08-06T13:14:09;103081.13;;;29.06;44.63
64340;BME280;50674;53.290;-9.080;2022-08-06T13:16:41;103079.91;;;29.31;42.40
64340;BME280;50674;53.290;-9.080;2022-08-06T13:19:11;103073.94;;;29.28;42.42
64340;BME280;50674;53.290;-9.080;2022-08-06T13:21:39;103073.69;;;29.60;43.88
64340;BME280;50674;53.290;-9.080;2022-08-06T13:24:05;103073.88;;;29.51;44.05
64340;BME280;50674;53.290;-9.080;2022-08-06T13:26:32;103075.19;;;29.40;42.04
64340;BME280;50674;53.290;-9.080;2022-08-06T13:29:08;103078.59;;;29.27;43.51
64340;BME280;50674;53.290;-9.080;2022-08-06T13:31:35;103073.38;;;29.09;41.38
64340;BME280;50674;53.290;-9.080;2022-08-06T13:34:02;103076.97;;;29.33;43.19
64340;BME280;50674;53.290;-9.080;2022-08-06T13:36:28;103073.56;;;29.31;42.87
64340;BME280;50674;53.290;-9.080;2022-08-06T13:38:54;103076.44;;;29.37;42.52
64340;BME280;50674;53.290;-9.080;2022-08-06T13:41:27;103076.44;;;29.37;41.45
64340;BME280;50674;53.290;-9.080;2022-08-06T13:43:53;103067.75;;;29.26;38.66
64340;BME280;50674;53.290;-9.080;2022-08-06T13:46:19;103063.59;;;29.30;40.57
64340;BME280;50674;53.290;-9.080;2022-08-06T13:48:49;103065.53;;;29.21;41.63